createdAt,value
2019-03-08T00:02:01.710Z,55.20
2019-03-08T00:04:49.818Z,55.20
2019-03-08T00:07:38.143Z,55.30
2019-03-08T00:10:26.759Z,55.30
2019-03-08T00:13:15.158Z,55.40
2019-03-08T00:16:03.630Z,55.40
2019-03-08T00:18:52.016Z,55.50
2019-03-08T00:21:40.547Z,55.50
2019-03-08T00:24:28.759Z,55.60
2019-03-08T00:27:17.329Z,55.60
2019-03-08T00:30:08.805Z,55.60
2019-03-08T00:32:57.282Z,55.70
2019-03-08T00:35:45.691Z,55.70
2019-03-08T00:38:34.177Z,55.80
2019-03-08T00:41:22.562Z,55.70
2019-03-08T00:44:11.105Z,55.70
2019-03-08T00:46:59.418Z,55.70
2019-03-08T00:49:47.937Z,55.70
2019-03-08T00:52:36.126Z,55.70
2019-03-08T00:55:24.575Z,55.80
2019-03-08T00:58:13.062Z,55.70
2019-03-08T01:01:01.383Z,55.80
2019-03-08T01:03:49.790Z,55.80
2019-03-08T01:06:38.194Z,55.80
2019-03-08T01:09:26.389Z,55.80
2019-03-08T01:12:14.699Z,55.80
2019-03-08T01:15:03.587Z,55.90
2019-03-08T01:17:51.690Z,56.00
2019-03-08T01:20:39.731Z,56.00
2019-03-08T01:23:28.157Z,56.10
2019-03-08T01:26:16.490Z,56.10
2019-03-08T01:29:05.245Z,56.10
2019-03-08T01:31:53.750Z,56.10
2019-03-08T01:34:41.888Z,56.20
2019-03-08T01:37:30.666Z,56.20
2019-03-08T01:40:19.045Z,56.30
2019-03-08T01:43:07.358Z,56.30
2019-03-08T01:45:55.864Z,56.30
2019-03-08T01:48:44.250Z,56.40
2019-03-08T01:51:32.395Z,56.40
2019-03-08T01:54:20.830Z,56.50
2019-03-08T01:57:09.338Z,56.50
2019-03-08T01:59:57.793Z,56.60
2019-03-08T02:02:46.550Z,56.70
2019-03-08T02:05:35.162Z,56.60
2019-03-08T02:08:23.756Z,56.60
2019-03-08T02:11:12.170Z,56.60
2019-03-08T02:14:00.351Z,56.60
2019-03-08T02:16:49.576Z,56.60
2019-03-08T02:19:38.058Z,56.60
2019-03-08T02:22:26.464Z,56.60
2019-03-08T02:25:14.702Z,56.50
2019-03-08T02:28:03.086Z,56.40
2019-03-08T02:30:51.300Z,56.40
2019-03-08T02:33:39.591Z,56.40
2019-03-08T02:36:28.256Z,56.40
2019-03-08T02:39:16.495Z,56.30
2019-03-08T02:42:04.858Z,56.30
2019-03-08T02:44:53.579Z,56.30
2019-03-08T02:47:42.009Z,56.30
2019-03-08T02:50:30.329Z,56.30
2019-03-08T02:53:18.538Z,56.20
2019-03-08T02:56:07.158Z,56.20
2019-03-08T02:58:55.521Z,56.20
2019-03-08T03:01:43.905Z,56.20
2019-03-08T03:04:32.106Z,56.10
2019-03-08T03:07:20.487Z,56.10
2019-03-08T03:10:09.949Z,56.10
2019-03-08T03:12:58.528Z,56.20
2019-03-08T03:15:47.017Z,56.20
2019-03-08T03:18:35.189Z,56.20
2019-03-08T03:21:23.777Z,56.20
2019-03-08T03:24:12.536Z,56.20
2019-03-08T03:27:01.098Z,56.20
2019-03-08T03:29:49.091Z,56.20
2019-03-08T03:32:37.564Z,56.30
2019-03-08T03:35:25.884Z,56.30
2019-03-08T03:38:14.511Z,56.20
2019-03-08T03:41:03.073Z,56.30
2019-03-08T03:43:51.844Z,56.30
2019-03-08T03:46:40.131Z,56.20
2019-03-08T03:49:28.519Z,56.30
2019-03-08T03:52:16.771Z,56.30
2019-03-08T03:55:07.725Z,56.40
2019-03-08T03:57:55.806Z,56.40
2019-03-08T04:00:44.108Z,56.50
2019-03-08T04:03:32.670Z,56.50
2019-03-08T04:06:20.927Z,56.50
2019-03-08T04:09:11.469Z,56.50
2019-03-08T04:11:59.954Z,56.50
2019-03-08T04:14:48.647Z,56.60
2019-03-08T04:17:36.970Z,56.60
2019-03-08T04:20:25.296Z,56.60
2019-03-08T04:23:13.825Z,56.50
2019-03-08T04:26:02.378Z,56.60
2019-03-08T04:28:50.754Z,56.50
2019-03-08T04:31:39.102Z,56.30
2019-03-08T04:34:27.238Z,56.10
2019-03-08T04:37:15.697Z,55.90
2019-03-08T04:40:06.399Z,55.80
2019-03-08T04:42:54.493Z,55.60
2019-03-08T04:45:43.270Z,55.50
2019-03-08T04:48:31.452Z,55.20
2019-03-08T04:51:19.734Z,55.20
2019-03-08T04:54:08.148Z,55.00
2019-03-08T04:56:56.552Z,54.90
2019-03-08T04:59:44.812Z,54.70
2019-03-08T05:02:33.122Z,54.70
2019-03-08T05:05:21.524Z,54.60
2019-03-08T05:08:09.646Z,54.50
2019-03-08T05:10:58.885Z,54.50
2019-03-08T05:13:47.474Z,54.40
2019-03-08T05:16:35.603Z,54.30
2019-03-08T05:19:23.716Z,54.30
2019-03-08T05:22:12.486Z,54.20
2019-03-08T05:25:00.818Z,54.10
2019-03-08T05:27:49.554Z,54.10
2019-03-08T05:30:37.635Z,54.10
2019-03-08T05:33:26.222Z,54.00
2019-03-08T05:36:14.549Z,53.90
2019-03-08T05:39:04.908Z,54.00
2019-03-08T05:41:53.239Z,54.00
2019-03-08T05:44:41.697Z,54.00
2019-03-08T05:47:29.728Z,54.00
2019-03-08T05:50:17.933Z,54.00
2019-03-08T05:53:06.173Z,54.00
2019-03-08T05:55:54.242Z,54.00
2019-03-08T05:58:42.603Z,54.00
2019-03-08T06:01:30.940Z,54.00
2019-03-08T06:04:19.432Z,54.00
2019-03-08T06:07:07.736Z,54.00
2019-03-08T06:09:56.026Z,54.00
2019-03-08T06:12:44.509Z,54.00
2019-03-08T06:15:33.189Z,54.00
2019-03-08T06:18:21.414Z,54.00
2019-03-08T06:21:09.294Z,54.00
2019-03-08T06:23:57.512Z,54.00
2019-03-08T06:26:45.662Z,53.90
2019-03-08T06:29:33.840Z,54.00
2019-03-08T06:32:22.056Z,54.00
2019-03-08T06:35:10.330Z,54.00
2019-03-08T06:37:58.614Z,54.00
2019-03-08T06:40:46.837Z,54.10
2019-03-08T06:43:34.977Z,54.10
2019-03-08T06:46:23.027Z,54.10
2019-03-08T06:49:11.641Z,54.20
2019-03-08T06:52:00.995Z,54.10
2019-03-08T06:54:49.296Z,54.10
2019-03-08T06:57:37.746Z,54.00
2019-03-08T07:00:42.518Z,54.10
2019-03-08T07:03:30.943Z,54.10
2019-03-08T07:06:19.621Z,54.10
2019-03-08T07:09:08.374Z,54.10
2019-03-08T07:11:56.973Z,54.10
2019-03-08T07:14:45.383Z,54.30
2019-03-08T07:17:33.748Z,54.40
2019-03-08T07:20:30.080Z,54.50
2019-03-08T07:23:28.113Z,54.30
2019-03-08T07:26:33.840Z,54.30
2019-03-08T07:29:30.187Z,54.40
2019-03-08T07:32:38.127Z,54.60
2019-03-08T07:35:44.236Z,54.70
2019-03-08T07:38:49.902Z,54.80
2019-03-08T07:41:55.862Z,54.60
2019-03-08T07:45:01.810Z,54.50
2019-03-08T07:47:57.422Z,54.50
2019-03-08T07:50:49.983Z,54.50
2019-03-08T07:53:58.007Z,54.60
2019-03-08T07:56:51.011Z,54.50
2019-03-08T07:59:41.058Z,54.50
2019-03-08T08:02:34.066Z,54.50
2019-03-08T08:05:26.498Z,54.40
2019-03-08T08:08:19.088Z,54.10
2019-03-08T08:11:09.115Z,54.00
2019-03-08T08:13:58.986Z,54.00
2019-03-08T08:16:57.794Z,53.70
2019-03-08T08:20:02.552Z,53.60
2019-03-08T08:22:55.461Z,53.80
2019-03-08T08:25:48.387Z,54.10
2019-03-08T08:28:49.473Z,52.90
2019-03-08T08:31:32.345Z,52.50
2019-03-08T08:34:22.102Z,51.30
2019-03-08T08:37:20.577Z,50.10
2019-03-08T08:40:28.617Z,49.60
2019-03-08T08:43:21.728Z,48.60
2019-03-08T08:46:11.688Z,48.20
2019-03-08T08:49:01.740Z,47.40
2019-03-08T08:51:52.624Z,47.50
2019-03-08T08:54:42.268Z,47.80
2019-03-08T08:57:48.499Z,48.20
2019-03-08T09:00:38.461Z,48.50
2019-03-08T09:03:28.261Z,48.90
2019-03-08T09:06:18.322Z,48.50
2019-03-08T09:09:25.152Z,49.00
2019-03-08T09:12:15.349Z,49.10
2019-03-08T09:15:18.281Z,49.50
2019-03-08T09:18:08.080Z,49.50
2019-03-08T09:21:10.305Z,49.50
2019-03-08T09:24:12.113Z,49.20
2019-03-08T09:27:02.577Z,49.20
2019-03-08T09:29:58.373Z,49.40
2019-03-08T09:33:04.477Z,49.10
2019-03-08T09:35:54.648Z,49.30
2019-03-08T09:38:50.374Z,48.80
2019-03-08T09:41:43.137Z,48.90
2019-03-08T09:44:38.885Z,49.30
2019-03-08T09:47:31.225Z,48.90
2019-03-08T09:50:29.533Z,49.00
2019-03-08T09:53:22.446Z,49.00
2019-03-08T09:56:18.418Z,48.60
2019-03-08T09:59:13.875Z,48.60
2019-03-08T10:02:12.866Z,48.20
2019-03-08T10:05:05.723Z,48.40
2019-03-08T10:07:55.790Z,48.00
2019-03-08T10:10:51.760Z,48.10
2019-03-08T10:13:48.584Z,47.90
2019-03-08T10:16:47.957Z,47.90
2019-03-08T10:19:43.996Z,47.80
2019-03-08T10:22:42.770Z,47.90
2019-03-08T10:25:36.165Z,47.70
2019-03-08T10:28:28.862Z,47.50
2019-03-08T10:31:22.008Z,46.90
2019-03-08T10:34:14.762Z,46.90
2019-03-08T10:37:07.298Z,46.80
2019-03-08T10:39:57.227Z,47.00
2019-03-08T10:42:50.006Z,46.70
2019-03-08T10:45:54.844Z,46.50
2019-03-08T10:48:52.857Z,46.60
2019-03-08T10:51:45.745Z,46.50
2019-03-08T10:54:35.526Z,46.80
2019-03-08T10:57:34.254Z,46.50
2019-03-08T11:00:42.526Z,46.30
2019-03-08T11:03:35.413Z,46.30
2019-03-08T11:06:35.287Z,46.40
2019-03-08T11:09:24.065Z,46.40
2019-03-08T11:12:14.132Z,46.40
2019-03-08T11:15:06.767Z,46.30
2019-03-08T11:17:56.843Z,46.20
2019-03-08T11:20:58.610Z,46.30
2019-03-08T11:23:54.417Z,46.30
2019-03-08T11:26:50.165Z,46.30
2019-03-08T11:29:44.600Z,46.40
2019-03-08T11:32:50.653Z,46.20
2019-03-08T11:35:46.318Z,46.50
2019-03-08T11:38:41.902Z,46.50
2019-03-08T11:41:38.645Z,46.30
2019-03-08T11:44:41.039Z,46.60
2019-03-08T11:47:45.889Z,45.80
2019-03-08T11:50:36.000Z,45.90
2019-03-08T11:53:28.408Z,46.00
2019-03-08T11:56:25.240Z,46.20
2019-03-08T11:59:33.155Z,46.20
2019-03-08T12:02:41.449Z,46.20
2019-03-08T12:05:38.629Z,46.20
2019-03-08T12:08:34.009Z,46.30
2019-03-08T12:11:32.988Z,46.30
2019-03-08T12:14:33.749Z,46.20
2019-03-08T12:17:26.285Z,46.30
2019-03-08T12:20:18.225Z,46.40
2019-03-08T12:23:31.461Z,46.40
2019-03-08T12:26:24.314Z,46.40
2019-03-08T12:29:16.936Z,46.50
2019-03-08T12:32:27.877Z,46.50
2019-03-08T12:35:20.445Z,46.40
2019-03-08T12:38:26.546Z,46.30
2019-03-08T12:41:16.971Z,46.40
2019-03-08T12:44:31.929Z,46.50
2019-03-08T12:47:35.005Z,46.50
2019-03-08T12:50:49.396Z,46.50
2019-03-08T12:53:56.624Z,46.50
2019-03-08T12:56:58.143Z,46.60
2019-03-08T13:00:00.341Z,46.20
2019-03-08T13:02:56.328Z,46.00
2019-03-08T13:05:51.676Z,46.30
2019-03-08T13:08:53.975Z,46.40
2019-03-08T13:11:45.312Z,46.60
2019-03-08T13:14:33.413Z,46.20
2019-03-08T13:17:21.799Z,46.10
2019-03-08T13:20:20.454Z,46.20
2019-03-08T13:23:11.325Z,46.30
2019-03-08T13:25:59.753Z,46.50
2019-03-08T13:28:47.938Z,46.60
2019-03-08T13:31:38.777Z,46.70
2019-03-08T13:34:27.394Z,46.80
2019-03-08T13:37:15.449Z,47.00
2019-03-08T13:40:05.291Z,47.70
2019-03-08T13:42:53.534Z,48.20
2019-03-08T13:45:41.977Z,48.70
2019-03-08T13:48:30.506Z,49.10
2019-03-08T13:51:18.853Z,49.30
2019-03-08T13:54:07.401Z,49.50
2019-03-08T13:56:55.495Z,49.40
2019-03-08T13:59:43.946Z,49.20
2019-03-08T14:02:32.339Z,49.00
2019-03-08T14:05:20.697Z,49.10
2019-03-08T14:08:09.451Z,49.40
2019-03-08T14:10:57.488Z,49.70
2019-03-08T14:13:45.658Z,49.70
2019-03-08T14:16:33.852Z,49.80
2019-03-08T14:19:22.383Z,49.70
2019-03-08T14:22:10.988Z,49.70
2019-03-08T14:24:59.212Z,49.70
2019-03-08T14:27:47.629Z,49.60
2019-03-08T14:30:37.856Z,49.70
2019-03-08T14:33:26.317Z,49.70
2019-03-08T14:36:14.619Z,49.80
2019-03-08T14:39:08.005Z,49.20
2019-03-08T14:41:56.372Z,49.10
2019-03-08T16:31:30.384Z,47.80
2019-03-08T16:34:18.700Z,47.90
2019-03-08T16:37:09.112Z,48.00
2019-03-08T16:40:01.517Z,48.00
2019-03-08T16:42:54.220Z,48.10
2019-03-08T16:45:44.747Z,48.10
2019-03-08T16:48:40.397Z,48.50
2019-03-08T16:51:45.139Z,48.80
2019-03-08T16:54:35.145Z,49.00
2019-03-08T16:57:25.323Z,49.10
2019-03-08T17:00:21.619Z,49.20
2019-03-08T17:03:26.658Z,49.30
2019-03-08T17:06:26.216Z,49.40
2019-03-08T17:09:11.385Z,49.30
2019-03-08T17:12:17.854Z,49.30
2019-03-08T17:15:15.841Z,49.30
2019-03-08T17:18:22.028Z,49.30
2019-03-08T17:21:26.863Z,49.40
2019-03-08T17:24:26.014Z,49.40
2019-03-08T17:27:15.850Z,48.90
2019-03-08T17:30:25.792Z,48.80
2019-03-08T17:33:18.958Z,48.80
2019-03-08T17:36:14.620Z,48.80
2019-03-08T17:39:07.010Z,48.80
2019-03-08T17:42:02.979Z,48.80
2019-03-08T17:44:55.826Z,48.80
2019-03-08T17:47:46.196Z,48.80
2019-03-08T17:50:39.012Z,48.70
2019-03-08T17:53:47.009Z,48.80
2019-03-08T17:56:53.089Z,48.80
2019-03-08T17:59:55.166Z,48.80
2019-03-08T18:02:45.797Z,48.90
2019-03-08T18:05:51.699Z,48.80
2019-03-08T18:08:53.567Z,48.80
2019-03-08T18:11:49.287Z,48.80
2019-03-08T18:14:48.445Z,48.80
2019-03-08T18:17:47.718Z,48.80
2019-03-08T18:20:37.863Z,48.80
2019-03-08T18:23:44.685Z,48.80
2019-03-08T18:26:35.244Z,48.80
2019-03-08T18:29:41.229Z,48.80
2019-03-08T18:32:31.595Z,48.80
2019-03-08T18:35:24.445Z,48.90
2019-03-08T18:38:23.159Z,48.90
2019-03-08T18:41:13.303Z,49.00
2019-03-08T18:44:09.298Z,49.00
2019-03-08T18:47:05.107Z,49.00
2019-03-08T18:50:01.015Z,49.00
2019-03-08T18:52:53.808Z,49.00
2019-03-08T18:55:49.751Z,49.00
2019-03-08T18:58:42.787Z,49.00
2019-03-08T19:01:32.851Z,49.00
2019-03-08T19:04:41.270Z,49.10
2019-03-08T19:07:34.215Z,49.10
2019-03-08T19:10:24.235Z,49.10
2019-03-08T19:13:30.439Z,49.10
2019-03-08T19:16:23.506Z,49.10
2019-03-08T19:19:13.895Z,49.10
2019-03-08T19:22:03.901Z,49.10
2019-03-08T19:25:02.936Z,49.10
2019-03-08T19:27:53.071Z,49.20
2019-03-08T19:30:59.856Z,49.20
2019-03-08T19:33:55.376Z,49.10
2019-03-08T19:36:48.185Z,49.20
2019-03-08T19:39:44.239Z,49.20
2019-03-08T19:42:40.391Z,49.20
2019-03-08T19:45:40.122Z,49.20
2019-03-08T19:48:46.116Z,49.20
2019-03-08T19:51:43.244Z,49.30
2019-03-08T19:54:33.930Z,49.20
2019-03-08T19:57:42.661Z,49.30
2019-03-08T20:00:39.115Z,49.20
2019-03-08T20:03:31.037Z,48.60
2019-03-08T20:06:21.080Z,48.80
2019-03-08T20:09:15.098Z,48.80
2019-03-08T20:12:05.905Z,49.00
2019-03-08T20:15:01.808Z,48.90
2019-03-08T20:17:52.433Z,49.00
2019-03-08T20:20:42.524Z,49.00
2019-03-08T20:23:49.398Z,49.00
2019-03-08T20:26:47.568Z,49.10
2019-03-08T20:29:38.385Z,49.10
2019-03-08T20:32:31.645Z,49.10
2019-03-08T20:35:24.486Z,49.10
2019-03-08T20:38:30.462Z,49.10
2019-03-08T20:41:36.633Z,49.10
2019-03-08T20:44:32.528Z,49.20
2019-03-08T20:47:23.155Z,49.20
2019-03-08T20:50:12.607Z,49.20
2019-03-08T20:53:01.325Z,49.20
2019-03-08T20:55:50.205Z,49.20
2019-03-08T20:58:39.171Z,49.20
2019-03-08T21:01:28.382Z,49.20
2019-03-08T21:04:17.534Z,49.10
2019-03-08T21:07:06.961Z,49.20
2019-03-08T21:09:55.656Z,49.20
2019-03-08T21:12:44.412Z,49.20
2019-03-08T21:15:33.378Z,49.20
2019-03-08T21:18:24.907Z,49.30
2019-03-08T21:21:13.278Z,49.30
2019-03-08T21:24:02.145Z,49.30
2019-03-08T21:26:50.731Z,49.40
2019-03-08T21:29:39.315Z,49.40
2019-03-08T21:32:28.163Z,49.40
2019-03-08T21:35:16.727Z,49.50
2019-03-08T21:38:05.785Z,49.50
2019-03-08T21:40:54.127Z,49.50
2019-03-08T21:43:42.765Z,50.00
2019-03-08T21:46:31.276Z,49.60
2019-03-08T21:49:20.911Z,49.60
2019-03-08T21:52:09.474Z,49.70
2019-03-08T21:54:58.334Z,49.80
2019-03-08T21:57:46.534Z,49.80
2019-03-08T22:00:34.959Z,49.90
2019-03-08T22:03:23.115Z,50.00
2019-03-08T22:06:14.677Z,50.10
2019-03-08T22:09:07.123Z,50.20
2019-03-08T22:11:55.886Z,50.20
2019-03-08T22:14:44.438Z,50.20
2019-03-08T22:17:33.129Z,50.30
2019-03-08T22:20:21.700Z,50.40
2019-03-08T22:23:10.085Z,50.50
2019-03-08T22:25:58.624Z,50.60
2019-03-08T22:28:46.787Z,50.70
2019-03-08T22:31:35.193Z,50.70
2019-03-08T22:34:23.610Z,50.90
2019-03-08T22:37:12.300Z,51.00
2019-03-08T22:40:00.709Z,51.10
2019-03-08T22:42:49.629Z,51.20
2019-03-08T22:45:38.153Z,51.30
2019-03-08T22:48:27.489Z,51.40
2019-03-08T22:51:15.724Z,51.50
2019-03-08T22:54:05.361Z,51.50
2019-03-08T22:56:53.522Z,51.60
2019-03-08T22:59:41.971Z,51.60
2019-03-08T23:02:30.530Z,51.60
2019-03-08T23:05:19.438Z,51.70
2019-03-08T23:08:07.880Z,51.80
2019-03-08T23:10:56.379Z,51.80
2019-03-08T23:13:46.094Z,51.80
2019-03-08T23:16:34.498Z,51.90
2019-03-08T23:19:22.781Z,51.90
2019-03-08T23:22:11.153Z,51.90
2019-03-08T23:24:59.692Z,51.90
2019-03-08T23:27:49.569Z,52.00
2019-03-08T23:30:37.765Z,52.00
2019-03-08T23:33:26.393Z,52.00
2019-03-08T23:36:15.500Z,52.20
2019-03-08T23:39:05.596Z,52.20
2019-03-08T23:41:54.627Z,52.30
2019-03-08T23:44:43.722Z,52.30
2019-03-08T23:47:32.405Z,52.40
2019-03-08T23:50:20.721Z,52.50
2019-03-08T23:53:09.352Z,52.50
2019-03-08T23:55:57.847Z,52.50
2019-03-08T23:58:46.827Z,52.60
